Terminal Aerodrome Forecast
Issued by NWS Boise, ID

Home | Current Version | Previous Version | Text Only | Print | Product List | Glossary On
Versions: 1 2 3 4 5 6 7 8 9 10 11 12
000
FTUS45 KBOI 270520
TAFBNO
TAF
KBNO 270520Z 2706/2806 27011KT P6SM SCT250
     FM271800 26013G23KT P6SM FEW250
     FM280100 27007KT P6SM SKC=

USA.gov is the U.S. government's official web portal to all federal, state and local government web resources and services.